Terminal Aerodrome Forecast
Issued by NWS

Home | Current Version | Previous Version | Text Only | Print | Product List | Glossary On
Versions: 1 2 3 4 5 6 7 8 9 10 11 12 13 14 15 16 17 18 19 20 21 22 23 24 25 26 27 28 29 30 31
000
FTUS43 KMKX 021722
TAFENW
TAF
KENW 021722Z 0218/0318 23018G30KT P6SM SCT150
     FM022200 22021G32KT P6SM VCTS SCT050CB
     FM022300 23018G28KT 5SM -TSRA SCT040 BKN080CB
     FM030100 25011G21KT P6SM VCTS BKN090CB
     FM030200 26009KT P6SM SCT090 BKN250
     FM030600 29007KT P6SM SCT090
     FM031600 30011G19KT P6SM FEW250=

USA.gov is the U.S. government's official web portal to all federal, state and local government web resources and services.